sensor_id;sensor_type;location;lat;lon;timestamp;temperature;humidity
23010;DHT22;11671;49.990;8.028;2023-06-14T00:02:46;19.60;99.90
23010;DHT22;11671;49.990;8.028;2023-06-14T00:05:12;19.50;99.90
23010;DHT22;11671;49.990;8.028;2023-06-14T00:07:39;19.40;99.90
23010;DHT22;11671;49.990;8.028;2023-06-14T00:10:08;19.40;99.90
23010;DHT22;11671;49.990;8.028;2023-06-14T00:12:34;19.40;99.90
23010;DHT22;11671;49.990;8.028;2023-06-14T00:15:00;19.30;99.90
23010;DHT22;11671;49.990;8.028;2023-06-14T00:17:27;19.30;99.90
23010;DHT22;11671;49.990;8.028;2023-06-14T00:19:56;19.20;99.90
23010;DHT22;11671;49.990;8.028;2023-06-14T00:22:22;19.20;99.90
23010;DHT22;11671;49.990;8.028;2023-06-14T00:24:50;19.20;99.90
23010;DHT22;11671;49.990;8.028;2023-06-14T00:27:16;19.10;99.90
23010;DHT22;11671;49.990;8.028;2023-06-14T00:29:41;19.00;99.90
23010;DHT22;11671;49.990;8.028;2023-06-14T00:32:07;19.00;99.90
23010;DHT22;11671;49.990;8.028;2023-06-14T00:34:33;18.90;99.90
23010;DHT22;11671;49.990;8.028;2023-06-14T00:36:59;18.90;99.90
23010;DHT22;11671;49.990;8.028;2023-06-14T00:39:24;18.90;99.90
23010;DHT22;11671;49.990;8.028;2023-06-14T00:41:50;18.80;99.90
23010;DHT22;11671;49.990;8.028;2023-06-14T00:44:16;18.80;99.90
23010;DHT22;11671;49.990;8.028;2023-06-14T00:46:45;18.70;99.90
23010;DHT22;11671;49.990;8.028;2023-06-14T00:49:12;18.70;99.90
23010;DHT22;11671;49.990;8.028;2023-06-14T00:51:38;18.60;99.90
23010;DHT22;11671;49.990;8.028;2023-06-14T00:54:04;18.50;99.90
23010;DHT22;11671;49.990;8.028;2023-06-14T00:56:30;18.50;99.90
23010;DHT22;11671;49.990;8.028;2023-06-14T01:01:22;18.40;99.90
23010;DHT22;11671;49.990;8.028;2023-06-14T01:03:49;18.50;99.90
23010;DHT22;11671;49.990;8.028;2023-06-14T01:08:51;18.50;99.90
23010;DHT22;11671;49.990;8.028;2023-06-14T01:11:26;18.50;99.90
23010;DHT22;11671;49.990;8.028;2023-06-14T01:13:54;18.40;99.90
23010;DHT22;11671;49.990;8.028;2023-06-14T01:16:20;18.30;99.90
23010;DHT22;11671;49.990;8.028;2023-06-14T01:18:46;18.30;99.90
23010;DHT22;11671;49.990;8.028;2023-06-14T01:21:26;18.30;99.90
23010;DHT22;11671;49.990;8.028;2023-06-14T01:23:53;18.30;99.90
23010;DHT22;11671;49.990;8.028;2023-06-14T01:26:23;18.30;99.90
23010;DHT22;11671;49.990;8.028;2023-06-14T01:28:50;18.40;99.90
23010;DHT22;11671;49.990;8.028;2023-06-14T01:31:20;18.40;99.90
23010;DHT22;11671;49.990;8.028;2023-06-14T01:33:52;18.40;99.90
23010;DHT22;11671;49.990;8.028;2023-06-14T01:36:22;18.40;99.90
23010;DHT22;11671;49.990;8.028;2023-06-14T01:38:51;18.40;99.90
23010;DHT22;11671;49.990;8.028;2023-06-14T01:41:18;18.30;99.90
23010;DHT22;11671;49.990;8.028;2023-06-14T01:43:45;18.40;99.90
23010;DHT22;11671;49.990;8.028;2023-06-14T01:46:13;18.30;99.90
23010;DHT22;11671;49.990;8.028;2023-06-14T01:48:40;18.20;99.90
23010;DHT22;11671;49.990;8.028;2023-06-14T01:51:06;18.30;99.90
23010;DHT22;11671;49.990;8.028;2023-06-14T01:53:31;18.30;99.90
23010;DHT22;11671;49.990;8.028;2023-06-14T01:55:57;18.30;99.90
23010;DHT22;11671;49.990;8.028;2023-06-14T01:58:22;18.30;99.90
23010;DHT22;11671;49.990;8.028;2023-06-14T02:00:49;18.30;99.90
23010;DHT22;11671;49.990;8.028;2023-06-14T02:03:15;18.30;99.90
23010;DHT22;11671;49.990;8.028;2023-06-14T02:05:40;18.30;99.90
23010;DHT22;11671;49.990;8.028;2023-06-14T02:08:07;18.20;99.90
23010;DHT22;11671;49.990;8.028;2023-06-14T02:10:32;18.20;99.90
23010;DHT22;11671;49.990;8.028;2023-06-14T02:12:58;18.10;99.90
23010;DHT22;11671;49.990;8.028;2023-06-14T02:15:24;18.10;99.90
23010;DHT22;11671;49.990;8.028;2023-06-14T02:17:49;18.10;99.90
23010;DHT22;11671;49.990;8.028;2023-06-14T02:20:15;18.10;99.90
23010;DHT22;11671;49.990;8.028;2023-06-14T02:22:41;18.10;99.90
23010;DHT22;11671;49.990;8.028;2023-06-14T02:25:07;18.10;99.90
23010;DHT22;11671;49.990;8.028;2023-06-14T02:27:33;18.00;99.90
23010;DHT22;11671;49.990;8.028;2023-06-14T02:30:00;18.00;99.90
23010;DHT22;11671;49.990;8.028;2023-06-14T02:32:26;17.90;99.90
23010;DHT22;11671;49.990;8.028;2023-06-14T02:34:53;17.90;99.90
23010;DHT22;11671;49.990;8.028;2023-06-14T02:37:19;17.90;99.90
23010;DHT22;11671;49.990;8.028;2023-06-14T02:39:44;17.80;99.90
23010;DHT22;11671;49.990;8.028;2023-06-14T02:42:10;17.80;99.90
23010;DHT22;11671;49.990;8.028;2023-06-14T02:44:36;17.80;99.90
23010;DHT22;11671;49.990;8.028;2023-06-14T02:47:02;17.80;99.90
23010;DHT22;11671;49.990;8.028;2023-06-14T02:49:27;17.70;99.90
23010;DHT22;11671;49.990;8.028;2023-06-14T02:51:54;17.70;99.90
23010;DHT22;11671;49.990;8.028;2023-06-14T02:54:20;17.80;99.90
23010;DHT22;11671;49.990;8.028;2023-06-14T02:56:45;17.80;99.90
23010;DHT22;11671;49.990;8.028;2023-06-14T02:59:11;17.80;99.90
23010;DHT22;11671;49.990;8.028;2023-06-14T03:01:36;17.60;99.90
23010;DHT22;11671;49.990;8.028;2023-06-14T03:04:06;17.60;99.90
23010;DHT22;11671;49.990;8.028;2023-06-14T03:06:32;17.50;99.90
23010;DHT22;11671;49.990;8.028;2023-06-14T03:08:59;17.50;99.90
23010;DHT22;11671;49.990;8.028;2023-06-14T03:11:26;17.60;99.90
23010;DHT22;11671;49.990;8.028;2023-06-14T03:18:52;17.40;99.90
23010;DHT22;11671;49.990;8.028;2023-06-14T03:21:18;17.40;99.90
23010;DHT22;11671;49.990;8.028;2023-06-14T03:23:46;17.40;99.90
23010;DHT22;11671;49.990;8.028;2023-06-14T03:26:12;17.40;99.90
23010;DHT22;11671;49.990;8.028;2023-06-14T03:28:45;17.40;99.90
23010;DHT22;11671;49.990;8.028;2023-06-14T03:31:12;17.40;99.90
23010;DHT22;11671;49.990;8.028;2023-06-14T03:33:38;17.40;99.90
23010;DHT22;11671;49.990;8.028;2023-06-14T03:36:04;17.40;99.90
23010;DHT22;11671;49.990;8.028;2023-06-14T03:38:30;17.40;99.90
23010;DHT22;11671;49.990;8.028;2023-06-14T03:40:56;17.50;99.90
23010;DHT22;11671;49.990;8.028;2023-06-14T03:43:22;17.50;99.90
23010;DHT22;11671;49.990;8.028;2023-06-14T03:45:47;17.50;99.90
23010;DHT22;11671;49.990;8.028;2023-06-14T03:48:13;17.60;99.90
23010;DHT22;11671;49.990;8.028;2023-06-14T03:50:39;17.60;99.90
23010;DHT22;11671;49.990;8.028;2023-06-14T03:53:06;17.50;99.90
23010;DHT22;11671;49.990;8.028;2023-06-14T03:55:32;17.50;99.90
23010;DHT22;11671;49.990;8.028;2023-06-14T03:57:58;17.50;99.90
23010;DHT22;11671;49.990;8.028;2023-06-14T04:00:24;17.50;99.90
23010;DHT22;11671;49.990;8.028;2023-06-14T04:02:49;17.60;99.90
23010;DHT22;11671;49.990;8.028;2023-06-14T04:05:15;17.70;99.90
23010;DHT22;11671;49.990;8.028;2023-06-14T04:07:42;17.50;99.90
23010;DHT22;11671;49.990;8.028;2023-06-14T04:10:13;17.50;99.90
23010;DHT22;11671;49.990;8.028;2023-06-14T04:12:39;17.50;99.90
23010;DHT22;11671;49.990;8.028;2023-06-14T04:29:51;17.70;99.90
23010;DHT22;11671;49.990;8.028;2023-06-14T04:32:28;17.70;99.90
23010;DHT22;11671;49.990;8.028;2023-06-14T04:34:58;17.70;99.90
23010;DHT22;11671;49.990;8.028;2023-06-14T04:37:25;17.80;99.90
23010;DHT22;11671;49.990;8.028;2023-06-14T04:39:54;17.80;99.90
23010;DHT22;11671;49.990;8.028;2023-06-14T04:42:21;18.00;99.90
23010;DHT22;11671;49.990;8.028;2023-06-14T04:44:51;18.20;99.90
23010;DHT22;11671;49.990;8.028;2023-06-14T04:47:17;18.30;99.90
23010;DHT22;11671;49.990;8.028;2023-06-14T04:49:43;18.50;99.90
23010;DHT22;11671;49.990;8.028;2023-06-14T04:52:10;18.80;99.90
23010;DHT22;11671;49.990;8.028;2023-06-14T04:54:36;19.10;99.90
23010;DHT22;11671;49.990;8.028;2023-06-14T04:57:03;19.30;99.90
23010;DHT22;11671;49.990;8.028;2023-06-14T04:59:29;19.30;99.90
23010;DHT22;11671;49.990;8.028;2023-06-14T05:01:59;19.40;99.90
23010;DHT22;11671;49.990;8.028;2023-06-14T05:04:25;19.50;99.90
23010;DHT22;11671;49.990;8.028;2023-06-14T05:06:52;19.70;99.90
23010;DHT22;11671;49.990;8.028;2023-06-14T05:09:20;20.00;99.90
23010;DHT22;11671;49.990;8.028;2023-06-14T05:11:50;20.10;99.90
23010;DHT22;11671;49.990;8.028;2023-06-14T05:14:19;20.30;99.90
23010;DHT22;11671;49.990;8.028;2023-06-14T05:16:45;20.50;99.90
23010;DHT22;11671;49.990;8.028;2023-06-14T05:19:11;20.80;99.90
23010;DHT22;11671;49.990;8.028;2023-06-14T05:21:36;21.30;99.90
23010;DHT22;11671;49.990;8.028;2023-06-14T05:24:02;22.30;99.90
23010;DHT22;11671;49.990;8.028;2023-06-14T05:26:28;23.60;99.90
23010;DHT22;11671;49.990;8.028;2023-06-14T05:28:57;24.90;99.90
23010;DHT22;11671;49.990;8.028;2023-06-14T05:31:24;26.40;99.90
23010;DHT22;11671;49.990;8.028;2023-06-14T05:33:50;27.50;99.90
23010;DHT22;11671;49.990;8.028;2023-06-14T05:36:15;28.10;94.80
23010;DHT22;11671;49.990;8.028;2023-06-14T05:38:41;28.60;90.70
23010;DHT22;11671;49.990;8.028;2023-06-14T05:41:07;28.80;89.80
23010;DHT22;11671;49.990;8.028;2023-06-14T05:43:32;29.20;87.80
23010;DHT22;11671;49.990;8.028;2023-06-14T05:45:58;29.70;83.60
23010;DHT22;11671;49.990;8.028;2023-06-14T05:48:24;30.00;82.10
23010;DHT22;11671;49.990;8.028;2023-06-14T05:50:49;30.30;78.90
23010;DHT22;11671;49.990;8.028;2023-06-14T05:53:15;30.70;76.50
23010;DHT22;11671;49.990;8.028;2023-06-14T05:55:41;31.20;74.80
23010;DHT22;11671;49.990;8.028;2023-06-14T05:58:06;31.70;72.10
23010;DHT22;11671;49.990;8.028;2023-06-14T06:00:32;32.10;70.90
23010;DHT22;11671;49.990;8.028;2023-06-14T06:02:58;32.20;69.30
23010;DHT22;11671;49.990;8.028;2023-06-14T06:05:24;32.40;69.20
23010;DHT22;11671;49.990;8.028;2023-06-14T06:07:50;32.20;68.40
23010;DHT22;11671;49.990;8.028;2023-06-14T06:10:16;32.20;68.00
23010;DHT22;11671;49.990;8.028;2023-06-14T06:12:42;32.30;68.00
23010;DHT22;11671;49.990;8.028;2023-06-14T06:15:08;32.00;66.20
23010;DHT22;11671;49.990;8.028;2023-06-14T06:17:37;31.80;67.30
23010;DHT22;11671;49.990;8.028;2023-06-14T06:20:04;32.10;66.60
23010;DHT22;11671;49.990;8.028;2023-06-14T06:22:31;32.00;64.20
23010;DHT22;11671;49.990;8.028;2023-06-14T06:24:56;32.30;64.20
23010;DHT22;11671;49.990;8.028;2023-06-14T06:27:22;32.30;62.30
23010;DHT22;11671;49.990;8.028;2023-06-14T06:29:47;31.70;62.70
23010;DHT22;11671;49.990;8.028;2023-06-14T06:32:17;31.50;63.20
23010;DHT22;11671;49.990;8.028;2023-06-14T06:34:42;31.90;62.40
23010;DHT22;11671;49.990;8.028;2023-06-14T06:37:08;31.50;61.40
23010;DHT22;11671;49.990;8.028;2023-06-14T06:39:33;31.40;61.70
23010;DHT22;11671;49.990;8.028;2023-06-14T06:41:59;31.00;62.00
23010;DHT22;11671;49.990;8.028;2023-06-14T06:44:25;30.80;62.80
23010;DHT22;11671;49.990;8.028;2023-06-14T06:46:50;30.70;62.10
23010;DHT22;11671;49.990;8.028;2023-06-14T06:49:16;31.00;62.40
23010;DHT22;11671;49.990;8.028;2023-06-14T06:51:42;30.80;62.40
23010;DHT22;11671;49.990;8.028;2023-06-14T06:54:08;30.50;62.30
23010;DHT22;11671;49.990;8.028;2023-06-14T06:56:35;30.10;63.80
23010;DHT22;11671;49.990;8.028;2023-06-14T06:59:00;30.00;64.00
23010;DHT22;11671;49.990;8.028;2023-06-14T07:01:26;30.00;63.70
23010;DHT22;11671;49.990;8.028;2023-06-14T07:03:54;29.70;64.20
23010;DHT22;11671;49.990;8.028;2023-06-14T07:06:20;29.70;64.30
23010;DHT22;11671;49.990;8.028;2023-06-14T07:08:46;29.70;65.00
23010;DHT22;11671;49.990;8.028;2023-06-14T07:11:14;29.80;64.80
23010;DHT22;11671;49.990;8.028;2023-06-14T07:13:39;29.70;64.60
23010;DHT22;11671;49.990;8.028;2023-06-14T07:16:05;29.60;65.60
23010;DHT22;11671;49.990;8.028;2023-06-14T07:18:31;30.10;65.00
23010;DHT22;11671;49.990;8.028;2023-06-14T07:20:57;29.60;65.00
23010;DHT22;11671;49.990;8.028;2023-06-14T07:23:23;29.50;66.00
23010;DHT22;11671;49.990;8.028;2023-06-14T07:25:49;29.30;65.60
23010;DHT22;11671;49.990;8.028;2023-06-14T07:28:16;29.60;65.70
23010;DHT22;11671;49.990;8.028;2023-06-14T07:30:42;29.60;64.70
23010;DHT22;11671;49.990;8.028;2023-06-14T07:33:07;29.20;64.90
23010;DHT22;11671;49.990;8.028;2023-06-14T07:35:33;28.80;65.90
23010;DHT22;11671;49.990;8.028;2023-06-14T07:37:59;29.10;66.90
23010;DHT22;11671;49.990;8.028;2023-06-14T07:40:25;29.00;66.00
23010;DHT22;11671;49.990;8.028;2023-06-14T07:42:50;28.70;65.80
23010;DHT22;11671;49.990;8.028;2023-06-14T07:45:16;28.40;66.60
23010;DHT22;11671;49.990;8.028;2023-06-14T07:47:42;28.30;66.00
23010;DHT22;11671;49.990;8.028;2023-06-14T07:50:08;28.10;67.30
23010;DHT22;11671;49.990;8.028;2023-06-14T07:52:34;27.80;67.60
23010;DHT22;11671;49.990;8.028;2023-06-14T07:54:59;27.60;67.20
23010;DHT22;11671;49.990;8.028;2023-06-14T07:57:25;27.80;69.00
23010;DHT22;11671;49.990;8.028;2023-06-14T07:59:51;27.70;68.40
23010;DHT22;11671;49.990;8.028;2023-06-14T08:02:17;27.80;69.30
23010;DHT22;11671;49.990;8.028;2023-06-14T08:04:43;28.20;68.30
23010;DHT22;11671;49.990;8.028;2023-06-14T08:07:09;28.00;68.40
23010;DHT22;11671;49.990;8.028;2023-06-14T08:09:35;27.80;69.30
23010;DHT22;11671;49.990;8.028;2023-06-14T08:12:04;27.70;70.20
23010;DHT22;11671;49.990;8.028;2023-06-14T08:14:33;27.80;70.50
23010;DHT22;11671;49.990;8.028;2023-06-14T08:16:58;27.70;68.90
23010;DHT22;11671;49.990;8.028;2023-06-14T08:19:24;27.40;69.70
23010;DHT22;11671;49.990;8.028;2023-06-14T08:21:50;27.60;70.10
23010;DHT22;11671;49.990;8.028;2023-06-14T08:24:16;27.60;69.80
23010;DHT22;11671;49.990;8.028;2023-06-14T08:26:41;27.90;70.50
23010;DHT22;11671;49.990;8.028;2023-06-14T08:29:07;28.20;69.10
23010;DHT22;11671;49.990;8.028;2023-06-14T08:31:33;27.90;68.20
23010;DHT22;11671;49.990;8.028;2023-06-14T08:33:59;27.60;70.00
23010;DHT22;11671;49.990;8.028;2023-06-14T08:36:25;27.70;69.70
23010;DHT22;11671;49.990;8.028;2023-06-14T08:38:50;27.80;69.60
23010;DHT22;11671;49.990;8.028;2023-06-14T08:41:21;27.80;69.20
23010;DHT22;11671;49.990;8.028;2023-06-14T08:43:48;28.00;70.00
23010;DHT22;11671;49.990;8.028;2023-06-14T08:46:15;27.50;70.10
23010;DHT22;11671;49.990;8.028;2023-06-14T08:48:48;27.50;69.90
23010;DHT22;11671;49.990;8.028;2023-06-14T08:51:16;27.60;70.60
23010;DHT22;11671;49.990;8.028;2023-06-14T08:53:43;27.70;70.60
23010;DHT22;11671;49.990;8.028;2023-06-14T08:56:09;27.40;69.40
23010;DHT22;11671;49.990;8.028;2023-06-14T08:58:42;27.20;70.30
23010;DHT22;11671;49.990;8.028;2023-06-14T09:01:13;27.10;70.50
23010;DHT22;11671;49.990;8.028;2023-06-14T09:03:40;27.20;70.80
23010;DHT22;11671;49.990;8.028;2023-06-14T09:06:07;27.30;71.10
23010;DHT22;11671;49.990;8.028;2023-06-14T09:08:34;27.60;71.10
23010;DHT22;11671;49.990;8.028;2023-06-14T09:11:01;27.80;71.00
23010;DHT22;11671;49.990;8.028;2023-06-14T09:13:27;27.70;71.30
23010;DHT22;11671;49.990;8.028;2023-06-14T09:15:53;27.80;70.80
23010;DHT22;11671;49.990;8.028;2023-06-14T09:18:19;27.90;70.60
23010;DHT22;11671;49.990;8.028;2023-06-14T09:20:47;27.70;70.40
23010;DHT22;11671;49.990;8.028;2023-06-14T09:23:13;27.60;70.40
23010;DHT22;11671;49.990;8.028;2023-06-14T09:25:46;27.80;71.20
23010;DHT22;11671;49.990;8.028;2023-06-14T09:28:12;27.80;71.50
23010;DHT22;11671;49.990;8.028;2023-06-14T09:30:38;27.50;69.80
23010;DHT22;11671;49.990;8.028;2023-06-14T09:33:04;27.50;69.80
23010;DHT22;11671;49.990;8.028;2023-06-14T09:35:31;27.20;67.00
23010;DHT22;11671;49.990;8.028;2023-06-14T09:37:57;27.40;68.10
23010;DHT22;11671;49.990;8.028;2023-06-14T09:40:23;27.20;66.20
23010;DHT22;11671;49.990;8.028;2023-06-14T09:42:49;27.50;66.60
23010;DHT22;11671;49.990;8.028;2023-06-14T09:45:15;27.40;67.80
23010;DHT22;11671;49.990;8.028;2023-06-14T09:47:48;27.30;68.80
23010;DHT22;11671;49.990;8.028;2023-06-14T09:50:14;27.50;67.00
23010;DHT22;11671;49.990;8.028;2023-06-14T09:52:43;27.70;67.40
23010;DHT22;11671;49.990;8.028;2023-06-14T09:55:12;27.50;67.90
23010;DHT22;11671;49.990;8.028;2023-06-14T09:57:40;27.30;68.40
23010;DHT22;11671;49.990;8.028;2023-06-14T10:00:07;27.70;69.00
23010;DHT22;11671;49.990;8.028;2023-06-14T10:02:37;27.80;68.60
23010;DHT22;11671;49.990;8.028;2023-06-14T10:05:08;27.50;67.50
23010;DHT22;11671;49.990;8.028;2023-06-14T10:07:47;27.30;67.80
23010;DHT22;11671;49.990;8.028;2023-06-14T10:10:13;26.90;68.80
23010;DHT22;11671;49.990;8.028;2023-06-14T10:12:40;26.80;70.10
23010;DHT22;11671;49.990;8.028;2023-06-14T10:15:08;26.90;70.10
23010;DHT22;11671;49.990;8.028;2023-06-14T10:17:46;27.10;70.80
23010;DHT22;11671;49.990;8.028;2023-06-14T10:20:30;26.80;71.50
23010;DHT22;11671;49.990;8.028;2023-06-14T10:23:03;26.90;73.20
23010;DHT22;11671;49.990;8.028;2023-06-14T10:25:32;26.60;73.60
23010;DHT22;11671;49.990;8.028;2023-06-14T10:28:18;26.60;70.80
23010;DHT22;11671;49.990;8.028;2023-06-14T10:31:21;26.70;72.60
23010;DHT22;11671;49.990;8.028;2023-06-14T10:33:55;26.70;73.70
23010;DHT22;11671;49.990;8.028;2023-06-14T10:38:57;26.90;73.10
23010;DHT22;11671;49.990;8.028;2023-06-14T10:41:24;26.60;70.60
23010;DHT22;11671;49.990;8.028;2023-06-14T10:43:52;26.60;70.70
23010;DHT22;11671;49.990;8.028;2023-06-14T10:46:35;26.80;70.60
23010;DHT22;11671;49.990;8.028;2023-06-14T10:49:01;26.90;70.30
23010;DHT22;11671;49.990;8.028;2023-06-14T10:51:29;26.70;71.10
23010;DHT22;11671;49.990;8.028;2023-06-14T10:54:12;26.80;71.40
23010;DHT22;11671;49.990;8.028;2023-06-14T10:56:50;27.10;70.40
23010;DHT22;11671;49.990;8.028;2023-06-14T10:59:17;27.10;68.90
23010;DHT22;11671;49.990;8.028;2023-06-14T11:04:49;27.20;70.00
23010;DHT22;11671;49.990;8.028;2023-06-14T11:12:55;26.50;69.50
23010;DHT22;11671;49.990;8.028;2023-06-14T11:15:37;26.70;68.60
23010;DHT22;11671;49.990;8.028;2023-06-14T11:18:05;27.00;67.50
23010;DHT22;11671;49.990;8.028;2023-06-14T11:20:35;27.00;67.30
23010;DHT22;11671;49.990;8.028;2023-06-14T11:23:01;26.90;67.40
23010;DHT22;11671;49.990;8.028;2023-06-14T11:25:27;27.00;68.90
23010;DHT22;11671;49.990;8.028;2023-06-14T11:27:56;27.20;70.10
23010;DHT22;11671;49.990;8.028;2023-06-14T11:30:22;27.00;70.60
23010;DHT22;11671;49.990;8.028;2023-06-14T11:32:51;26.80;70.00
23010;DHT22;11671;49.990;8.028;2023-06-14T11:35:21;27.00;70.30
23010;DHT22;11671;49.990;8.028;2023-06-14T11:37:48;27.10;70.80
23010;DHT22;11671;49.990;8.028;2023-06-14T11:40:15;27.40;70.30
23010;DHT22;11671;49.990;8.028;2023-06-14T11:42:41;27.30;70.60
23010;DHT22;11671;49.990;8.028;2023-06-14T11:45:10;27.10;71.40
23010;DHT22;11671;49.990;8.028;2023-06-14T11:47:38;27.10;71.20
23010;DHT22;11671;49.990;8.028;2023-06-14T11:50:09;27.40;71.80
23010;DHT22;11671;49.990;8.028;2023-06-14T11:52:36;27.40;69.80
23010;DHT22;11671;49.990;8.028;2023-06-14T11:55:03;27.30;70.90
23010;DHT22;11671;49.990;8.028;2023-06-14T11:57:33;27.10;70.70
23010;DHT22;11671;49.990;8.028;2023-06-14T11:59:59;27.10;71.40
23010;DHT22;11671;49.990;8.028;2023-06-14T12:02:24;27.00;70.30
23010;DHT22;11671;49.990;8.028;2023-06-14T12:04:53;27.10;71.00
23010;DHT22;11671;49.990;8.028;2023-06-14T12:07:19;27.00;71.30
23010;DHT22;11671;49.990;8.028;2023-06-14T12:12:20;27.30;72.70
23010;DHT22;11671;49.990;8.028;2023-06-14T12:14:47;27.30;71.60
23010;DHT22;11671;49.990;8.028;2023-06-14T12:17:12;27.40;70.40
23010;DHT22;11671;49.990;8.028;2023-06-14T12:19:45;27.50;70.10
23010;DHT22;11671;49.990;8.028;2023-06-14T12:22:11;27.30;70.90
23010;DHT22;11671;49.990;8.028;2023-06-14T12:24:37;27.20;69.80
23010;DHT22;11671;49.990;8.028;2023-06-14T12:27:04;27.20;70.30
23010;DHT22;11671;49.990;8.028;2023-06-14T12:29:30;27.30;70.50
23010;DHT22;11671;49.990;8.028;2023-06-14T12:31:56;27.40;69.50
23010;DHT22;11671;49.990;8.028;2023-06-14T12:34:26;27.80;69.00
23010;DHT22;11671;49.990;8.028;2023-06-14T12:36:55;27.40;68.50
23010;DHT22;11671;49.990;8.028;2023-06-14T12:39:21;27.40;68.70
23010;DHT22;11671;49.990;8.028;2023-06-14T12:41:48;27.70;69.00
23010;DHT22;11671;49.990;8.028;2023-06-14T12:44:14;27.80;67.60
23010;DHT22;11671;49.990;8.028;2023-06-14T12:46:41;27.90;67.00
23010;DHT22;11671;49.990;8.028;2023-06-14T12:49:10;27.80;67.70
23010;DHT22;11671;49.990;8.028;2023-06-14T12:51:39;27.90;66.30
23010;DHT22;11671;49.990;8.028;2023-06-14T12:54:05;27.90;66.60
23010;DHT22;11671;49.990;8.028;2023-06-14T12:56:31;27.60;67.60
23010;DHT22;11671;49.990;8.028;2023-06-14T12:58:58;27.40;68.70
23010;DHT22;11671;49.990;8.028;2023-06-14T13:01:23;27.30;68.20
23010;DHT22;11671;49.990;8.028;2023-06-14T13:03:49;27.40;66.90
23010;DHT22;11671;49.990;8.028;2023-06-14T13:06:17;27.90;67.80
23010;DHT22;11671;49.990;8.028;2023-06-14T13:08:43;28.20;66.80
23010;DHT22;11671;49.990;8.028;2023-06-14T13:11:09;28.40;65.80
23010;DHT22;11671;49.990;8.028;2023-06-14T13:13:35;28.90;66.00
23010;DHT22;11671;49.990;8.028;2023-06-14T13:16:03;28.70;65.80
23010;DHT22;11671;49.990;8.028;2023-06-14T13:18:29;28.40;66.40
23010;DHT22;11671;49.990;8.028;2023-06-14T13:20:55;28.20;66.60
23010;DHT22;11671;49.990;8.028;2023-06-14T13:23:20;28.10;65.50
23010;DHT22;11671;49.990;8.028;2023-06-14T13:25:46;28.00;66.70
23010;DHT22;11671;49.990;8.028;2023-06-14T13:28:12;28.30;66.30
23010;DHT22;11671;49.990;8.028;2023-06-14T13:30:37;28.50;65.50
23010;DHT22;11671;49.990;8.028;2023-06-14T13:33:03;28.70;65.20
23010;DHT22;11671;49.990;8.028;2023-06-14T13:35:29;28.70;66.20
23010;DHT22;11671;49.990;8.028;2023-06-14T13:37:54;28.70;66.50
23010;DHT22;11671;49.990;8.028;2023-06-14T13:40:20;29.00;67.70
23010;DHT22;11671;49.990;8.028;2023-06-14T13:42:46;28.80;68.00
23010;DHT22;11671;49.990;8.028;2023-06-14T13:45:13;28.70;68.10
23010;DHT22;11671;49.990;8.028;2023-06-14T13:47:38;28.90;68.00
23010;DHT22;11671;49.990;8.028;2023-06-14T13:50:05;28.50;68.30
23010;DHT22;11671;49.990;8.028;2023-06-14T13:52:31;28.30;68.90
23010;DHT22;11671;49.990;8.028;2023-06-14T13:54:56;28.30;68.80
23010;DHT22;11671;49.990;8.028;2023-06-14T13:57:22;28.70;68.10
23010;DHT22;11671;49.990;8.028;2023-06-14T13:59:48;28.70;67.70
23010;DHT22;11671;49.990;8.028;2023-06-14T14:02:14;28.90;66.50
23010;DHT22;11671;49.990;8.028;2023-06-14T14:04:40;28.20;65.90
23010;DHT22;11671;49.990;8.028;2023-06-14T14:07:07;28.40;66.50
23010;DHT22;11671;49.990;8.028;2023-06-14T14:09:33;28.90;66.30
23010;DHT22;11671;49.990;8.028;2023-06-14T14:12:00;29.40;65.90
23010;DHT22;11671;49.990;8.028;2023-06-14T14:14:27;29.60;65.10
23010;DHT22;11671;49.990;8.028;2023-06-14T14:16:53;29.40;65.50
23010;DHT22;11671;49.990;8.028;2023-06-14T14:19:23;29.20;65.70
23010;DHT22;11671;49.990;8.028;2023-06-14T14:21:49;29.00;65.00
23010;DHT22;11671;49.990;8.028;2023-06-14T14:24:14;29.10;65.40
23010;DHT22;11671;49.990;8.028;2023-06-14T14:26:41;29.10;65.20
23010;DHT22;11671;49.990;8.028;2023-06-14T14:29:07;29.20;65.80
23010;DHT22;11671;49.990;8.028;2023-06-14T14:31:33;29.40;64.90
23010;DHT22;11671;49.990;8.028;2023-06-14T14:33:58;29.10;65.40
23010;DHT22;11671;49.990;8.028;2023-06-14T14:36:24;28.90;66.60
23010;DHT22;11671;49.990;8.028;2023-06-14T14:38:50;28.40;64.40
23010;DHT22;11671;49.990;8.028;2023-06-14T14:41:17;28.10;64.30
23010;DHT22;11671;49.990;8.028;2023-06-14T14:43:43;28.00;64.70
23010;DHT22;11671;49.990;8.028;2023-06-14T14:46:08;28.40;64.50
23010;DHT22;11671;49.990;8.028;2023-06-14T14:48:34;28.60;62.80
23010;DHT22;11671;49.990;8.028;2023-06-14T14:51:00;28.90;63.30
23010;DHT22;11671;49.990;8.028;2023-06-14T14:53:25;29.30;62.90
23010;DHT22;11671;49.990;8.028;2023-06-14T14:55:51;29.80;63.00
23010;DHT22;11671;49.990;8.028;2023-06-14T14:58:16;29.90;63.60
23010;DHT22;11671;49.990;8.028;2023-06-14T15:00:46;29.20;64.90
23010;DHT22;11671;49.990;8.028;2023-06-14T15:03:13;28.50;66.10
23010;DHT22;11671;49.990;8.028;2023-06-14T15:05:39;28.50;66.10
23010;DHT22;11671;49.990;8.028;2023-06-14T15:08:05;28.20;65.40
23010;DHT22;11671;49.990;8.028;2023-06-14T15:10:39;28.10;67.30
23010;DHT22;11671;49.990;8.028;2023-06-14T15:13:07;28.30;65.70
23010;DHT22;11671;49.990;8.028;2023-06-14T15:15:34;28.60;65.70
23010;DHT22;11671;49.990;8.028;2023-06-14T15:18:00;28.90;65.70
23010;DHT22;11671;49.990;8.028;2023-06-14T15:20:26;29.20;65.80
23010;DHT22;11671;49.990;8.028;2023-06-14T15:22:52;28.80;64.70
23010;DHT22;11671;49.990;8.028;2023-06-14T15:25:18;28.90;65.00
23010;DHT22;11671;49.990;8.028;2023-06-14T15:27:44;28.90;64.20
23010;DHT22;11671;49.990;8.028;2023-06-14T15:30:10;28.60;64.80
23010;DHT22;11671;49.990;8.028;2023-06-14T15:32:36;28.40;65.90
23010;DHT22;11671;49.990;8.028;2023-06-14T15:35:02;28.70;66.30
23010;DHT22;11671;49.990;8.028;2023-06-14T15:37:27;28.70;66.60
23010;DHT22;11671;49.990;8.028;2023-06-14T15:39:53;28.40;65.40
23010;DHT22;11671;49.990;8.028;2023-06-14T15:42:18;28.20;66.10
23010;DHT22;11671;49.990;8.028;2023-06-14T15:44:44;28.00;67.30
23010;DHT22;11671;49.990;8.028;2023-06-14T15:47:12;27.40;67.10
23010;DHT22;11671;49.990;8.028;2023-06-14T15:49:37;27.00;68.50
23010;DHT22;11671;49.990;8.028;2023-06-14T15:52:03;26.80;68.60
23010;DHT22;11671;49.990;8.028;2023-06-14T15:54:29;26.80;69.20
23010;DHT22;11671;49.990;8.028;2023-06-14T15:56:54;27.00;69.20
23010;DHT22;11671;49.990;8.028;2023-06-14T15:59:20;27.30;68.70
23010;DHT22;11671;49.990;8.028;2023-06-14T16:01:45;27.20;67.70
23010;DHT22;11671;49.990;8.028;2023-06-14T16:04:11;27.40;67.80
23010;DHT22;11671;49.990;8.028;2023-06-14T16:06:37;27.40;66.80
23010;DHT22;11671;49.990;8.028;2023-06-14T16:09:03;27.70;67.60